Weather at Vršac Airfield

Public forecast

Using degrees Celsius for public forecast. Weather courtesy of forecast.io.

Current aviation weather report (METAR) for Vršac Airfield

2024/07/14 05:00 (retrieved 19 minutes ago)

LYVR 140500Z AUTO 14016KT 110V170 CAVOK 32/12 Q1010

Closest aviation forecast (TAF) to Vršac Airfield

Forecast is more than 6 hours old.

Closest forecast is Kukës International Airport, 190.8 nm (353.3 km) SSW.

2024/07/13 18:00 Ammendment (retrieved 11 hours ago)

TAF AMD LAKU 131900Z 1318/1418 CNL